Time,TemperatureF,DewpointF,PressureIn,WindDirection,WindDirectionDegrees,WindSpeedMPH,WindSpeedGustMPH,Humidity,HourlyPrecipIn,Conditions,Clouds,dailyrainin,SoftwareType,DateUTC
2013-05-27 00:05:00,58.6,31.8,29.47,ESE,108,0.0,19.7,36,0.04,,,0.31,VWS V13.01,2013-05-27 04:05:00,
2013-05-27 00:10:00,58.5,31.6,29.47,ESE,108,0.0,19.7,36,0.04,,,0.31,VWS V13.01,2013-05-27 04:10:00,
2013-05-27 00:15:00,58.3,31.5,29.47,ESE,108,0.0,19.7,36,0.04,,,0.31,VWS V13.01,2013-05-27 04:15:00,
2013-05-27 00:20:00,58.3,31.5,29.47,ESE,108,0.0,19.7,36,0.04,,,0.31,VWS V13.01,2013-05-27 04:20:00,
2013-05-27 00:25:00,58.1,32.0,29.47,SSE,156,0.0,19.7,37,0.04,,,0.31,VWS V13.01,2013-05-27 04:25:00,
2013-05-27 00:30:00,58.1,32.0,29.47,SE,135,4.0,19.7,37,0.04,,,0.31,VWS V13.01,2013-05-27 04:30:00,
2013-05-27 00:35:00,58.1,32.7,29.47,East,100,3.1,19.7,38,0.04,,,0.31,VWS V13.01,2013-05-27 04:35:00,
2013-05-27 00:40:00,58.5,32.3,29.47,ESE,119,3.6,19.7,37,0.04,,,0.31,VWS V13.01,2013-05-27 04:40:00,
2013-05-27 00:45:00,58.8,32.6,29.44,SE,136,4.0,19.7,37,0.04,,,0.31,VWS V13.01,2013-05-27 04:45:00,
2013-05-27 00:50:00,59.0,32.1,29.44,SE,133,2.7,19.7,36,0.04,,,0.31,VWS V13.01,2013-05-27 04:50:00,
2013-05-27 00:55:00,59.0,32.1,29.44,SE,125,3.1,19.7,36,0.04,,,0.31,VWS V13.01,2013-05-27 04:55:00,
2013-05-27 01:00:00,59.0,32.1,29.44,SSE,159,3.1,19.7,36,0.04,,,0.31,VWS V13.01,2013-05-27 05:00:00,
2013-05-27 01:05:00,59.0,31.4,29.44,SE,129,3.1,19.7,35,0.04,,,0.31,VWS V13.01,2013-05-27 05:05:00,
2013-05-27 01:10:00,59.0,31.4,29.44,SE,140,2.2,19.7,35,0.04,,,0.31,VWS V13.01,2013-05-27 05:10:00,
2013-05-27 01:15:00,58.8,32.0,29.44,SSE,147,3.1,19.7,36,0.04,,,0.31,VWS V13.01,2013-05-27 05:15:00,
2013-05-27 01:20:00,58.6,31.8,29.44,SE,128,2.7,19.7,36,0.04,,,0.31,VWS V13.01,2013-05-27 05:20:00,
2013-05-27 01:25:00,58.5,31.6,29.44,SE,142,2.7,19.7,36,0.04,,,0.31,VWS V13.01,2013-05-27 05:25:00,
2013-05-27 01:30:00,58.5,31.6,29.44,ESE,109,3.6,19.7,36,0.04,,,0.31,VWS V13.01,2013-05-27 05:30:00,
2013-05-27 01:35:00,58.5,31.6,29.44,ESE,119,3.6,19.7,36,0.04,,,0.31,VWS V13.01,2013-05-27 05:35:00,
2013-05-27 01:40:00,58.5,31.6,29.44,ESE,110,3.1,19.7,36,0.04,,,0.31,VWS V13.01,2013-05-27 05:40:00,
2013-05-27 01:45:00,58.3,32.2,29.44,ESE,114,2.7,19.7,37,0.04,,,0.31,VWS V13.01,2013-05-27 05:45:00,
2013-05-27 01:50:00,58.3,32.2,29.44,SE,132,5.4,19.7,37,0.04,,,0.31,VWS V13.01,2013-05-27 05:50:00,
2013-05-27 01:55:00,58.5,32.3,29.44,SE,131,3.6,19.7,37,0.04,,,0.31,VWS V13.01,2013-05-27 05:55:00,
2013-05-27 02:01:00,59.0,31.4,29.44,SE,129,4.0,19.7,35,0.04,,,0.31,VWS V13.01,2013-05-27 06:01:00,
2013-05-27 02:06:00,59.2,30.9,29.44,SE,139,5.4,19.7,34,0.04,,,0.31,VWS V13.01,2013-05-27 06:06:00,
2013-05-27 02:11:00,59.4,31.0,29.44,SE,135,4.0,19.7,34,0.04,,,0.31,VWS V13.01,2013-05-27 06:11:00,
2013-05-27 02:16:00,59.7,29.8,29.44,SE,145,5.8,19.7,32,0.04,,,0.31,VWS V13.01,2013-05-27 06:16:00,
2013-05-27 02:21:00,59.9,29.2,29.44,SE,138,6.3,19.7,31,0.04,,,0.31,VWS V13.01,2013-05-27 06:21:00,
2013-05-27 02:26:00,59.9,28.4,29.44,SE,124,4.0,19.7,30,0.04,,,0.31,VWS V13.01,2013-05-27 06:26:00,
2013-05-27 02:31:00,59.9,28.4,29.41,ESE,123,4.0,19.7,30,0.04,,,0.31,VWS V13.01,2013-05-27 06:31:00,
2013-05-27 02:36:00,59.9,27.6,29.41,ESE,112,5.4,19.7,29,0.04,,,0.31,VWS V13.01,2013-05-27 06:36:00,
2013-05-27 02:41:00,60.3,27.0,29.41,ESE,119,6.3,19.7,28,0.04,,,0.31,VWS V13.01,2013-05-27 06:41:00,
2013-05-27 02:46:00,60.6,25.6,29.41,ESE,102,5.8,19.7,26,0.04,,,0.31,VWS V13.01,2013-05-27 06:46:00,
2013-05-27 02:51:00,61.0,24.9,29.41,SE,142,3.6,19.7,25,0.04,,,0.31,VWS V13.01,2013-05-27 06:51:00,
2013-05-27 02:56:00,61.2,25.1,29.41,SE,137,3.6,19.7,25,0.04,,,0.31,VWS V13.01,2013-05-27 06:56:00,
2013-05-27 03:01:00,61.2,25.1,29.41,NE,49,7.2,19.7,25,0.04,,,0.31,VWS V13.01,2013-05-27 07:01:00,
2013-05-27 03:06:00,61.3,25.2,29.41,East,100,4.0,19.7,25,0.04,,,0.31,VWS V13.01,2013-05-27 07:06:00,
2013-05-27 03:11:00,61.3,25.2,29.41,SSE,153,5.8,19.7,25,0.04,,,0.31,VWS V13.01,2013-05-27 07:11:00,
2013-05-27 03:16:00,61.3,25.2,29.41,SE,143,5.4,19.7,25,0.04,,,0.31,VWS V13.01,2013-05-27 07:16:00,
2013-05-27 03:21:00,61.0,24.9,29.41,ESE,108,5.4,19.7,25,0.04,,,0.31,VWS V13.01,2013-05-27 07:21:00,
2013-05-27 03:26:00,60.4,25.4,29.41,SE,134,5.4,19.7,26,0.04,,,0.31,VWS V13.01,2013-05-27 07:26:00,
2013-05-27 03:31:00,59.9,25.9,29.41,SE,140,4.0,19.7,27,0.04,,,0.31,VWS V13.01,2013-05-27 07:31:00,
2013-05-27 03:36:00,59.5,26.4,29.41,SE,139,5.8,19.7,28,0.04,,,0.31,VWS V13.01,2013-05-27 07:36:00,
2013-05-27 03:41:00,59.2,27.0,29.41,SE,138,8.1,19.7,29,0.04,,,0.31,VWS V13.01,2013-05-27 07:41:00,
2013-05-27 03:46:00,59.4,27.1,29.41,ENE,75,5.4,19.7,29,0.04,,,0.31,VWS V13.01,2013-05-27 07:46:00,
2013-05-27 03:51:00,59.5,26.4,29.41,ESE,105,5.4,19.7,28,0.04,,,0.31,VWS V13.01,2013-05-27 07:51:00,
2013-05-27 03:56:00,59.7,26.6,29.41,SSE,150,4.0,19.7,28,0.04,,,0.31,VWS V13.01,2013-05-27 07:56:00,
2013-05-27 04:01:00,59.4,27.1,29.41,SE,140,5.8,19.7,29,0.04,,,0.31,VWS V13.01,2013-05-27 08:01:00,
2013-05-27 04:06:00,59.0,28.4,29.41,SE,141,4.0,19.7,31,0.04,,,0.31,VWS V13.01,2013-05-27 08:06:00,
2013-05-27 04:11:00,58.6,30.4,29.41,SE,140,3.6,19.7,34,0.04,,,0.31,VWS V13.01,2013-05-27 08:11:00,
2013-05-27 04:16:00,58.5,30.2,29.41,SE,136,5.8,19.7,34,0.04,,,0.31,VWS V13.01,2013-05-27 08:16:00,
2013-05-27 04:21:00,58.5,30.2,29.41,SE,124,4.0,19.7,34,0.04,,,0.31,VWS V13.01,2013-05-27 08:21:00,
2013-05-27 04:26:00,58.6,29.6,29.41,SE,142,5.4,19.7,33,0.04,,,0.31,VWS V13.01,2013-05-27 08:26:00,
2013-05-27 04:31:00,58.6,29.6,29.41,SSE,151,5.8,19.7,33,0.04,,,0.31,VWS V13.01,2013-05-27 08:31:00,
2013-05-27 04:36:00,58.8,29.8,29.41,ESE,123,3.1,19.7,33,0.04,,,0.31,VWS V13.01,2013-05-27 08:36:00,
2013-05-27 04:41:00,58.6,29.6,29.41,ESE,118,4.0,19.7,33,0.04,,,0.31,VWS V13.01,2013-05-27 08:41:00,
2013-05-27 04:46:00,58.6,28.1,29.41,SSE,153,5.4,19.7,31,0.04,,,0.31,VWS V13.01,2013-05-27 08:46:00,
2013-05-27 04:51:00,59.0,27.6,29.41,ESE,118,5.8,19.7,30,0.04,,,0.31,VWS V13.01,2013-05-27 08:51:00,
2013-05-27 04:56:00,58.8,28.3,29.41,SE,133,5.8,19.7,31,0.04,,,0.31,VWS V13.01,2013-05-27 08:56:00,
2013-05-27 05:01:00,58.6,29.6,29.41,SSE,152,5.4,19.7,33,0.04,,,0.31,VWS V13.01,2013-05-27 09:01:00,
2013-05-27 05:06:00,58.3,30.8,29.41,SE,136,6.3,19.7,35,0.04,,,0.31,VWS V13.01,2013-05-27 09:06:00,
2013-05-27 05:11:00,58.3,30.8,29.41,SE,136,6.7,19.7,35,0.04,,,0.31,VWS V13.01,2013-05-27 09:11:00,
2013-05-27 05:16:00,58.5,29.5,29.41,SE,135,5.4,19.7,33,0.04,,,0.31,VWS V13.01,2013-05-27 09:16:00,
2013-05-27 05:21:00,58.5,29.5,29.41,SE,141,6.3,19.7,33,0.04,,,0.31,VWS V13.01,2013-05-27 09:21:00,
2013-05-27 05:26:00,58.5,29.5,29.41,SE,146,6.3,19.7,33,0.04,,,0.31,VWS V13.01,2013-05-27 09:26:00,
2013-05-27 05:31:00,58.3,30.1,29.41,SE,142,4.0,19.7,34,0.04,,,0.31,VWS V13.01,2013-05-27 09:31:00,
2013-05-27 05:36:00,58.1,29.9,29.41,SE,127,6.7,19.7,34,0.04,,,0.31,VWS V13.01,2013-05-27 09:36:00,
2013-05-27 05:41:00,58.1,29.9,29.41,SE,143,5.4,19.7,34,0.04,,,0.31,VWS V13.01,2013-05-27 09:41:00,
2013-05-27 05:46:00,58.1,30.6,29.41,SSE,147,5.4,19.7,35,0.04,,,0.31,VWS V13.01,2013-05-27 09:46:00,
2013-05-27 05:51:00,57.9,30.5,29.41,SE,143,3.6,19.7,35,0.04,,,0.31,VWS V13.01,2013-05-27 09:51:00,
2013-05-27 05:57:00,57.9,30.5,29.41,SSE,148,8.7,19.7,35,0.04,,,0.31,VWS V13.01,2013-05-27 09:57:00,
2013-05-27 06:02:00,57.9,30.5,29.41,SSE,152,3.1,19.7,35,0.04,,,0.31,VWS V13.01,2013-05-27 10:02:00,
2013-05-27 06:07:00,57.9,30.5,29.41,SE,138,3.1,19.7,35,0.04,,,0.31,VWS V13.01,2013-05-27 10:07:00,
2013-05-27 06:12:00,57.9,30.5,29.41,SSE,167,7.6,19.7,35,0.04,,,0.31,VWS V13.01,2013-05-27 10:12:00,
2013-05-27 06:17:00,57.7,30.3,29.41,SE,135,4.9,19.7,35,0.04,,,0.31,VWS V13.01,2013-05-27 10:17:00,
2013-05-27 06:22:00,57.7,30.3,29.41,ESE,119,5.4,19.7,35,0.04,,,0.31,VWS V13.01,2013-05-27 10:22:00,
2013-05-27 06:27:00,57.7,30.3,29.41,SSE,152,8.1,19.7,35,0.04,,,0.31,VWS V13.01,2013-05-27 10:27:00,
2013-05-27 06:32:00,57.9,30.5,29.41,SE,142,5.4,19.7,35,0.04,,,0.31,VWS V13.01,2013-05-27 10:32:00,
2013-05-27 06:37:00,58.1,30.6,29.41,SE,133,4.0,19.7,35,0.04,,,0.31,VWS V13.01,2013-05-27 10:37:00,
2013-05-27 06:42:00,58.1,30.6,29.44,SSE,154,5.4,19.7,35,0.04,,,0.31,VWS V13.01,2013-05-27 10:42:00,
2013-05-27 06:47:00,58.1,29.9,29.44,SE,145,5.8,19.7,34,0.04,,,0.31,VWS V13.01,2013-05-27 10:47:00,
2013-05-27 06:52:00,58.3,30.1,29.44,SE,134,5.4,19.7,34,0.04,,,0.31,VWS V13.01,2013-05-27 10:52:00,
2013-05-27 06:57:00,58.3,30.1,29.44,SSE,149,6.3,19.7,34,0.04,,,0.31,VWS V13.01,2013-05-27 10:57:00,
2013-05-27 07:02:00,58.3,30.1,29.44,SSE,155,8.1,19.7,34,0.04,,,0.31,VWS V13.01,2013-05-27 11:02:00,
2013-05-27 07:07:00,58.5,30.2,29.44,ESE,123,5.8,19.7,34,0.04,,,0.31,VWS V13.01,2013-05-27 11:07:00,
2013-05-27 07:12:00,58.5,30.2,29.44,SSE,152,7.6,19.7,34,0.04,,,0.31,VWS V13.01,2013-05-27 11:12:00,
2013-05-27 07:17:00,58.5,29.5,29.44,SSE,150,8.3,19.7,33,0.04,,,0.31,VWS V13.01,2013-05-27 11:17:00,
2013-05-27 07:22:00,58.8,29.0,29.44,SE,129,5.4,19.7,32,0.04,,,0.31,VWS V13.01,2013-05-27 11:22:00,
2013-05-27 07:27:00,59.0,28.4,29.44,SE,130,8.7,19.7,31,0.04,,,0.31,VWS V13.01,2013-05-27 11:27:00,
2013-05-27 07:32:00,59.2,27.8,29.44,East,86,8.1,19.7,30,0.04,,,0.31,VWS V13.01,2013-05-27 11:32:00,
2013-05-27 07:37:00,59.2,27.8,29.44,ESE,118,5.4,19.7,30,0.04,,,0.31,VWS V13.01,2013-05-27 11:37:00,
2013-05-27 07:42:00,59.7,27.4,29.44,ESE,116,8.1,19.7,29,0.04,,,0.31,VWS V13.01,2013-05-27 11:42:00,
2013-05-27 07:47:00,60.3,27.0,29.44,SE,132,6.7,19.7,28,0.04,,,0.31,VWS V13.01,2013-05-27 11:47:00,
2013-05-27 07:52:00,60.6,26.5,29.44,SE,132,7.6,19.7,27,0.04,,,0.31,VWS V13.01,2013-05-27 11:52:00,
2013-05-27 07:57:00,61.3,26.2,29.44,ESE,102,5.8,19.7,26,0.04,,,0.31,VWS V13.01,2013-05-27 11:57:00,
2013-05-27 08:02:00,61.9,25.7,29.44,SE,141,2.7,19.7,25,0.04,,,0.31,VWS V13.01,2013-05-27 12:02:00,
2013-05-27 08:07:00,62.4,26.2,29.44,SE,129,5.4,19.7,25,0.04,,,0.31,VWS V13.01,2013-05-27 12:07:00,
2013-05-27 08:12:00,62.8,25.5,29.44,South,175,6.3,19.7,24,0.04,,,0.31,VWS V13.01,2013-05-27 12:12:00,
2013-05-27 08:17:00,63.1,25.8,29.44,SSE,147,4.0,19.7,24,0.04,,,0.31,VWS V13.01,2013-05-27 12:17:00,
2013-05-27 08:22:00,63.7,26.2,29.44,ESE,122,3.6,19.7,24,0.04,,,0.31,VWS V13.01,2013-05-27 12:22:00,
2013-05-27 08:27:00,64.2,25.7,29.44,SSE,155,5.8,19.7,23,0.04,,,0.31,VWS V13.01,2013-05-27 12:27:00,
2013-05-27 08:32:00,64.4,25.8,29.44,SE,127,3.6,19.7,23,0.04,,,0.31,VWS V13.01,2013-05-27 12:32:00,
2013-05-27 08:37:00,64.2,25.7,29.44,East,96,3.1,19.7,23,0.04,,,0.31,VWS V13.01,2013-05-27 12:37:00,
2013-05-27 08:42:00,64.0,26.5,29.44,ESE,118,8.1,19.7,24,0.04,,,0.31,VWS V13.01,2013-05-27 12:42:00,
2013-05-27 08:47:00,63.7,26.2,29.44,SE,141,6.3,19.7,24,0.04,,,0.31,VWS V13.01,2013-05-27 12:47:00,
2013-05-27 08:52:00,63.5,26.1,29.44,ESE,114,5.8,19.7,24,0.04,,,0.31,VWS V13.01,2013-05-27 12:52:00,
2013-05-27 08:57:00,63.9,26.4,29.44,ESE,111,4.9,19.7,24,0.04,,,0.31,VWS V13.01,2013-05-27 12:57:00,
2013-05-27 09:02:00,64.4,25.8,29.44,ESE,104,5.8,19.7,23,0.04,,,0.31,VWS V13.01,2013-05-27 13:02:00,
2013-05-27 09:07:00,64.9,26.3,29.44,South,191,3.6,19.7,23,0.04,,,0.31,VWS V13.01,2013-05-27 13:07:00,
2013-05-27 09:12:00,65.5,26.7,29.44,SE,141,4.0,19.7,23,0.04,,,0.31,VWS V13.01,2013-05-27 13:12:00,
2013-05-27 09:18:00,65.8,23.7,29.44,East,84,5.4,19.7,20,0.04,,,0.31,VWS V13.01,2013-05-27 13:18:00,
2013-05-27 09:23:00,66.2,26.3,29.44,East,101,5.4,19.7,22,0.04,,,0.31,VWS V13.01,2013-05-27 13:23:00,
2013-05-27 09:28:00,66.4,24.1,29.44,ESE,118,5.8,19.7,20,0.04,,,0.31,VWS V13.01,2013-05-27 13:28:00,
2013-05-27 09:33:00,66.4,26.4,29.44,SE,125,5.8,19.7,22,0.04,,,0.31,VWS V13.01,2013-05-27 13:33:00,
2013-05-27 09:38:00,66.6,24.3,29.44,NE,51,8.1,19.7,20,0.04,,,0.31,VWS V13.01,2013-05-27 13:38:00,
2013-05-27 09:43:00,66.6,26.6,29.41,East,93,6.3,19.7,22,0.04,,,0.31,VWS V13.01,2013-05-27 13:43:00,
2013-05-27 09:48:00,66.9,26.9,29.41,ESE,113,3.6,19.7,22,0.04,,,0.31,VWS V13.01,2013-05-27 13:48:00,
2013-05-27 09:53:00,67.5,27.3,29.41,South,178,2.7,19.7,22,0.04,,,0.31,VWS V13.01,2013-05-27 13:53:00,
2013-05-27 09:58:00,68.2,27.9,29.41,SSE,155,2.7,19.7,22,0.04,,,0.31,VWS V13.01,2013-05-27 13:58:00,
2013-05-27 10:03:00,68.7,26.1,29.41,SE,133,2.7,19.7,20,0.04,,,0.31,VWS V13.01,2013-05-27 14:03:00,
2013-05-27 10:08:00,69.3,26.5,29.41,ESE,119,2.2,19.7,20,0.04,,,0.31,VWS V13.01,2013-05-27 14:08:00,
2013-05-27 10:13:00,69.6,22.9,29.41,East,92,2.2,19.7,17,0.04,,,0.31,VWS V13.01,2013-05-27 14:13:00,
2013-05-27 10:18:00,69.8,23.1,29.41,NE,51,6.3,19.7,17,0.04,,,0.31,VWS V13.01,2013-05-27 14:18:00,
2013-05-27 10:26:00,70.3,23.5,29.41,ENE,65,3.6,19.7,17,0.04,,,0.31,VWS V13.01,2013-05-27 14:26:00,
2013-05-27 10:31:00,70.9,23.9,29.41,ESE,119,5.8,19.7,17,0.04,,,0.31,VWS V13.01,2013-05-27 14:31:00,
2013-05-27 10:36:00,71.2,19.6,29.41,ENE,77,5.4,19.7,14,0.04,,,0.31,VWS V13.01,2013-05-27 14:36:00,
2013-05-27 10:41:00,71.6,19.9,29.41,ENE,61,3.1,19.7,14,0.04,,,0.31,VWS V13.01,2013-05-27 14:41:00,
2013-05-27 10:46:00,72.3,20.5,29.41,ESE,119,2.7,19.7,14,0.04,,,0.31,VWS V13.01,2013-05-27 14:46:00,
2013-05-27 10:51:00,72.7,20.8,29.41,ENE,59,5.8,19.7,14,0.04,,,0.31,VWS V13.01,2013-05-27 14:51:00,
2013-05-27 10:56:00,72.9,20.9,29.41,NE,45,4.0,19.7,14,0.04,,,0.31,VWS V13.01,2013-05-27 14:56:00,
2013-05-27 11:01:00,73.6,19.8,29.41,East,90,4.0,19.7,13,0.04,,,0.31,VWS V13.01,2013-05-27 15:01:00,
2013-05-27 11:06:00,74.1,20.2,29.41,East,83,5.4,19.7,13,0.04,,,0.31,VWS V13.01,2013-05-27 15:06:00,
2013-05-27 11:11:00,74.3,20.3,29.41,NE,47,4.0,19.7,13,0.04,,,0.31,VWS V13.01,2013-05-27 15:11:00,
2013-05-27 11:16:00,74.7,20.6,29.41,East,93,5.4,19.7,13,0.04,,,0.31,VWS V13.01,2013-05-27 15:16:00,
2013-05-27 11:21:00,75.0,20.9,29.41,ESE,110,3.1,19.7,13,0.04,,,0.31,VWS V13.01,2013-05-27 15:21:00,
2013-05-27 11:26:00,75.7,21.5,29.41,ESE,109,0.0,19.7,13,0.04,,,0.31,VWS V13.01,2013-05-27 15:26:00,
2013-05-27 11:31:00,76.6,16.0,29.41,SW,225,4.0,19.7,10,0.04,,,0.31,VWS V13.01,2013-05-27 15:31:00,
2013-05-27 11:36:00,77.0,16.3,29.41,ESE,114,4.5,19.7,10,0.04,,,0.31,VWS V13.01,2013-05-27 15:36:00,
2013-05-27 11:41:00,77.5,16.7,29.38,SSE,166,2.7,19.7,10,0.04,,,0.00,VWS V13.01,2013-05-27 15:41:00,
2013-05-27 11:46:00,77.7,16.9,29.38,WNW,282,3.6,19.7,10,0.04,,,0.00,VWS V13.01,2013-05-27 15:46:00,
2013-05-27 11:51:00,77.7,16.9,29.38,NW,314,2.7,19.7,10,0.04,,,0.00,VWS V13.01,2013-05-27 15:51:00,
2013-05-27 11:56:00,77.9,17.0,29.38,SW,227,6.3,19.7,10,0.04,,,0.00,VWS V13.01,2013-05-27 15:56:00,
2013-05-27 12:01:00,78.1,17.1,29.38,SW,216,5.4,19.7,10,0.04,,,0.00,VWS V13.01,2013-05-27 16:01:00,
2013-05-27 12:06:00,78.3,17.3,29.38,SSW,203,4.0,19.7,10,0.04,,,0.00,VWS V13.01,2013-05-27 16:06:00,
2013-05-27 12:11:00,79.0,17.8,29.38,South,187,5.8,19.7,10,0.04,,,0.00,VWS V13.01,2013-05-27 16:11:00,
2013-05-27 12:16:00,79.5,18.2,29.38,SSW,205,4.0,19.7,10,0.04,,,0.00,VWS V13.01,2013-05-27 16:16:00,
2013-05-27 12:21:00,79.5,18.2,29.38,SSW,203,2.2,19.7,10,0.04,,,0.00,VWS V13.01,2013-05-27 16:21:00,
2013-05-27 12:26:00,79.7,18.4,29.38,NNE,14,3.1,19.7,10,0.04,,,0.00,VWS V13.01,2013-05-27 16:26:00,
2013-05-27 12:31:00,79.9,18.5,29.38,NW,304,2.2,19.7,10,0.04,,,0.00,VWS V13.01,2013-05-27 16:31:00,
2013-05-27 12:36:00,80.2,18.8,29.38,West,271,3.6,19.7,10,0.04,,,0.00,VWS V13.01,2013-05-27 16:36:00,
2013-05-27 12:41:00,80.4,18.9,29.38,WNW,298,2.2,19.7,10,0.04,,,0.00,VWS V13.01,2013-05-27 16:41:00,
2013-05-27 12:46:00,80.2,18.8,29.38,North,353,3.6,19.7,10,0.04,,,0.00,VWS V13.01,2013-05-27 16:46:00,
2013-05-27 12:51:00,80.6,16.6,29.38,NNW,334,4.0,19.7,9,0.04,,,0.00,VWS V13.01,2013-05-27 16:51:00,
2013-05-27 12:56:00,80.8,16.7,29.38,WSW,250,2.2,19.7,9,0.04,,,0.00,VWS V13.01,2013-05-27 16:56:00,
2013-05-27 13:01:00,80.8,16.7,29.38,SE,142,4.0,19.7,9,0.04,,,0.00,VWS V13.01,2013-05-27 17:01:00,
2013-05-27 13:06:00,81.0,16.9,29.38,WSW,243,5.4,19.7,9,0.04,,,0.00,VWS V13.01,2013-05-27 17:06:00,
2013-05-27 13:11:00,81.3,17.1,29.38,SSE,154,5.4,19.7,9,0.04,,,0.00,VWS V13.01,2013-05-27 17:11:00,
2013-05-27 13:16:00,81.3,17.1,29.38,SW,235,2.7,19.7,9,0.04,,,0.00,VWS V13.01,2013-05-27 17:16:00,
2013-05-27 13:21:00,81.3,17.1,29.38,SW,232,8.7,19.7,9,0.04,,,0.00,VWS V13.01,2013-05-27 17:21:00,
2013-05-27 13:26:00,81.5,17.3,29.38,WNW,300,3.1,19.7,9,0.04,,,0.00,VWS V13.01,2013-05-27 17:26:00,
2013-05-27 13:31:00,81.9,17.6,29.38,NW,311,2.7,19.7,9,0.04,,,0.00,VWS V13.01,2013-05-27 17:31:00,
2013-05-27 13:36:00,82.0,17.7,29.38,SSW,205,5.8,19.7,9,0.04,,,0.00,VWS V13.01,2013-05-27 17:36:00,
2013-05-27 13:41:00,82.0,17.7,29.38,SSW,209,5.4,19.7,9,0.04,,,0.00,VWS V13.01,2013-05-27 17:41:00,
2013-05-27 13:46:00,82.0,17.7,29.38,SW,222,6.3,19.7,9,0.04,,,0.00,VWS V13.01,2013-05-27 17:46:00,
2013-05-27 13:51:00,81.9,17.6,29.38,SSW,212,7.6,19.7,9,0.04,,,0.00,VWS V13.01,2013-05-27 17:51:00,
2013-05-27 13:56:00,82.2,17.8,29.35,SW,224,6.3,19.7,9,0.04,,,0.00,VWS V13.01,2013-05-27 17:56:00,
2013-05-27 14:01:00,82.2,17.8,29.35,SSW,210,5.8,19.7,9,0.04,,,0.00,VWS V13.01,2013-05-27 18:01:00,
2013-05-27 14:06:00,82.2,17.8,29.35,SSW,198,4.0,19.7,9,0.04,,,0.00,VWS V13.01,2013-05-27 18:06:00,
2013-05-27 14:11:00,82.4,18.0,29.35,WSW,245,6.3,19.7,9,0.04,,,0.00,VWS V13.01,2013-05-27 18:11:00,
2013-05-27 14:16:00,82.4,18.0,29.35,SW,236,3.6,19.7,9,0.04,,,0.00,VWS V13.01,2013-05-27 18:16:00,
2013-05-27 14:21:00,82.6,18.1,29.35,SW,232,8.3,19.7,9,0.04,,,0.00,VWS V13.01,2013-05-27 18:21:00,
2013-05-27 14:26:00,82.8,18.2,29.35,WSW,252,6.3,19.7,9,0.04,,,0.00,VWS V13.01,2013-05-27 18:26:00,
2013-05-27 14:31:00,82.8,18.2,29.35,WSW,247,3.6,19.7,9,0.04,,,0.00,VWS V13.01,2013-05-27 18:31:00,
2013-05-27 14:36:00,82.8,18.2,29.35,WSW,239,4.9,19.7,9,0.04,,,0.00,VWS V13.01,2013-05-27 18:36:00,
2013-05-27 14:41:00,82.8,18.2,29.35,WSW,249,13.2,19.7,9,0.04,,,0.00,VWS V13.01,2013-05-27 18:41:00,
2013-05-27 14:46:00,82.9,18.4,29.35,WSW,245,8.7,19.7,9,0.04,,,0.00,VWS V13.01,2013-05-27 18:46:00,
2013-05-27 14:51:00,83.1,18.5,29.35,NW,314,5.8,19.7,9,0.04,,,0.00,VWS V13.01,2013-05-27 18:51:00,
2013-05-27 14:56:00,83.1,18.5,29.35,WSW,242,9.2,19.7,9,0.04,,,0.00,VWS V13.01,2013-05-27 18:56:00,
2013-05-27 15:01:00,82.6,18.1,29.35,SSE,156,3.1,19.7,9,0.04,,,0.00,VWS V13.01,2013-05-27 19:01:00,
2013-05-27 15:06:00,83.3,18.6,29.35,SSE,164,4.0,19.7,9,0.04,,,0.00,VWS V13.01,2013-05-27 19:06:00,
2013-05-27 15:11:00,84.2,16.6,29.35,WSW,247,10.1,19.7,8,0.04,,,0.00,VWS V13.01,2013-05-27 19:11:00,
2013-05-27 15:16:00,83.7,18.9,29.35,South,183,4.0,19.7,9,0.04,,,0.00,VWS V13.01,2013-05-27 19:16:00,
2013-05-27 15:21:00,83.7,18.9,29.35,WSW,246,8.1,19.7,9,0.04,,,0.00,VWS V13.01,2013-05-27 19:21:00,
2013-05-27 15:26:00,83.8,19.0,29.35,SW,217,2.2,19.7,9,0.04,,,0.00,VWS V13.01,2013-05-27 19:26:00,
2013-05-27 15:31:00,84.0,19.2,29.35,SSW,213,5.4,19.7,9,0.04,,,0.00,VWS V13.01,2013-05-27 19:31:00,
2013-05-27 15:36:00,84.6,16.9,29.35,SSW,197,8.7,19.7,8,0.04,,,0.00,VWS V13.01,2013-05-27 19:36:00,
2013-05-27 15:41:00,84.9,17.1,29.35,WSW,250,4.9,19.7,8,0.04,,,0.00,VWS V13.01,2013-05-27 19:41:00,
2013-05-27 15:46:00,84.6,16.9,29.35,West,270,8.1,19.7,8,0.04,,,0.00,VWS V13.01,2013-05-27 19:46:00,
2013-05-27 15:51:00,84.4,16.7,29.35,WSW,246,8.3,19.7,8,0.04,,,0.00,VWS V13.01,2013-05-27 19:51:00,
2013-05-27 15:56:00,84.6,16.9,29.32,WSW,242,4.0,19.7,8,0.04,,,0.00,VWS V13.01,2013-05-27 19:56:00,
2013-05-27 16:01:00,84.7,17.0,29.32,SSW,203,3.1,19.7,8,0.04,,,0.00,VWS V13.01,2013-05-27 20:01:00,
2013-05-27 16:06:00,84.9,17.1,29.32,South,179,5.8,19.7,8,0.04,,,0.00,VWS V13.01,2013-05-27 20:06:00,
2013-05-27 16:11:00,85.1,17.2,29.32,WSW,255,8.1,19.7,8,0.04,,,0.00,VWS V13.01,2013-05-27 20:11:00,
2013-05-27 16:16:00,85.1,17.2,29.32,SW,225,10.5,19.7,8,0.04,,,0.00,VWS V13.01,2013-05-27 20:16:00,
2013-05-27 16:21:00,84.9,17.1,29.32,South,185,8.3,19.7,8,0.04,,,0.00,VWS V13.01,2013-05-27 20:21:00,
2013-05-27 16:26:00,85.1,17.2,29.32,SW,214,4.0,19.7,8,0.04,,,0.00,VWS V13.01,2013-05-27 20:26:00,
2013-05-27 16:31:00,85.1,17.2,29.32,WSW,241,4.0,19.7,8,0.04,,,0.00,VWS V13.01,2013-05-27 20:31:00,
2013-05-27 16:37:00,85.1,17.2,29.32,WSW,246,6.3,19.7,8,0.04,,,0.00,VWS V13.01,2013-05-27 20:37:00,
2013-05-27 16:42:00,85.5,17.5,29.32,WSW,237,8.3,19.7,8,0.04,,,0.00,VWS V13.01,2013-05-27 20:42:00,
2013-05-27 16:47:00,85.5,17.5,29.32,SSW,211,4.0,19.7,8,0.04,,,0.00,VWS V13.01,2013-05-27 20:47:00,
2013-05-27 16:52:00,85.6,17.6,29.32,SW,226,5.4,19.7,8,0.04,,,0.00,VWS V13.01,2013-05-27 20:52:00,
2013-05-27 16:57:00,85.6,17.6,29.32,West,276,5.4,19.7,8,0.04,,,0.00,VWS V13.01,2013-05-27 20:57:00,
2013-05-27 17:02:00,85.5,17.5,29.32,WNW,284,2.7,19.7,8,0.04,,,0.00,VWS V13.01,2013-05-27 21:02:00,
2013-05-27 17:07:00,85.5,17.5,29.32,WSW,240,7.6,19.7,8,0.04,,,0.00,VWS V13.01,2013-05-27 21:07:00,
2013-05-27 17:12:00,85.6,17.6,29.32,WSW,249,5.8,19.7,8,0.04,,,0.00,VWS V13.01,2013-05-27 21:12:00,
2013-05-27 17:17:00,85.5,17.5,29.32,SW,214,7.6,19.7,8,0.04,,,0.00,VWS V13.01,2013-05-27 21:17:00,
2013-05-27 17:22:00,85.3,17.4,29.32,SW,235,7.6,19.7,8,0.04,,,0.00,VWS V13.01,2013-05-27 21:22:00,
2013-05-27 17:27:00,85.5,17.5,29.32,WSW,258,5.8,19.7,8,0.04,,,0.00,VWS V13.01,2013-05-27 21:27:00,
2013-05-27 17:32:00,85.8,17.8,29.32,WSW,246,2.7,19.7,8,0.04,,,0.00,VWS V13.01,2013-05-27 21:32:00,
2013-05-27 17:37:00,86.2,18.0,29.32,WSW,239,5.8,19.7,8,0.04,,,0.00,VWS V13.01,2013-05-27 21:37:00,
2013-05-27 17:42:00,85.8,17.8,29.29,SW,217,8.7,19.7,8,0.04,,,0.00,VWS V13.01,2013-05-27 21:42:00,
2013-05-27 17:47:00,85.6,17.6,29.29,SW,236,8.1,19.7,8,0.04,,,0.00,VWS V13.01,2013-05-27 21:47:00,
2013-05-27 17:52:00,85.3,17.4,29.29,SW,234,5.8,19.7,8,0.04,,,0.00,VWS V13.01,2013-05-27 21:52:00,
2013-05-27 17:57:00,85.3,17.4,29.29,SSE,159,5.4,19.7,8,0.04,,,0.00,VWS V13.01,2013-05-27 21:57:00,
2013-05-27 18:02:00,85.5,17.5,29.29,SW,221,4.9,19.7,8,0.04,,,0.00,VWS V13.01,2013-05-27 22:02:00,
2013-05-27 18:07:00,85.6,17.6,29.29,WSW,243,8.1,19.7,8,0.04,,,0.00,VWS V13.01,2013-05-27 22:07:00,
2013-05-27 18:12:00,85.5,17.5,29.29,SW,232,8.7,19.7,8,0.04,,,0.00,VWS V13.01,2013-05-27 22:12:00,
2013-05-27 18:17:00,85.1,17.2,29.29,SW,228,6.7,19.7,8,0.04,,,0.00,VWS V13.01,2013-05-27 22:17:00,
2013-05-27 18:22:00,84.9,17.1,29.29,SSW,200,7.2,19.7,8,0.04,,,0.00,VWS V13.01,2013-05-27 22:22:00,
2013-05-27 18:27:00,85.1,17.2,29.29,WSW,258,3.1,19.7,8,0.04,,,0.00,VWS V13.01,2013-05-27 22:27:00,
2013-05-27 18:32:00,85.5,17.5,29.29,SSE,168,4.9,19.7,8,0.04,,,0.00,VWS V13.01,2013-05-27 22:32:00,
2013-05-27 18:37:00,85.6,17.6,29.29,SW,223,4.0,19.7,8,0.04,,,0.00,VWS V13.01,2013-05-27 22:37:00,
2013-05-27 18:42:00,85.6,17.6,29.29,SW,230,4.0,19.7,8,0.04,,,0.00,VWS V13.01,2013-05-27 22:42:00,
2013-05-27 18:47:00,85.1,17.2,29.29,SW,232,2.7,19.7,8,0.04,,,0.00,VWS V13.01,2013-05-27 22:47:00,
2013-05-27 18:52:00,84.6,16.9,29.29,WSW,246,3.6,19.7,8,0.04,,,0.00,VWS V13.01,2013-05-27 22:52:00,
2013-05-27 18:57:00,84.2,16.6,29.29,WSW,237,4.0,19.7,8,0.04,,,0.00,VWS V13.01,2013-05-27 22:57:00,
2013-05-27 19:02:00,83.7,18.9,29.29,WNW,292,2.7,19.7,9,0.04,,,0.00,VWS V13.01,2013-05-27 23:02:00,
2013-05-27 19:11:00,83.5,18.8,29.29,WNW,298,0.0,19.7,9,0.04,,,0.00,VWS V13.01,2013-05-27 23:11:00,
2013-05-27 19:16:00,83.3,18.6,29.29,SW,229,0.0,19.7,9,0.04,,,0.00,VWS V13.01,2013-05-27 23:16:00,
2013-05-27 19:21:00,83.1,18.5,29.29,NW,325,2.2,19.7,9,0.04,,,0.00,VWS V13.01,2013-05-27 23:21:00,
2013-05-27 19:26:00,82.8,18.2,29.29,NW,306,0.0,19.7,9,0.04,,,0.00,VWS V13.01,2013-05-27 23:26:00,
2013-05-27 19:31:00,82.8,18.2,29.29,NW,305,0.0,19.7,9,0.04,,,0.00,VWS V13.01,2013-05-27 23:31:00,
2013-05-27 19:36:00,82.6,18.1,29.29,WSW,243,0.0,19.7,9,0.04,,,0.00,VWS V13.01,2013-05-27 23:36:00,
2013-05-27 19:42:00,82.4,18.0,29.29,West,275,2.2,19.7,9,0.04,,,0.00,VWS V13.01,2013-05-27 23:42:00,
2013-05-27 19:47:00,82.4,18.0,29.29,WSW,239,2.7,19.7,9,0.04,,,0.00,VWS V13.01,2013-05-27 23:47:00,
2013-05-27 19:52:00,82.6,18.1,29.29,WSW,248,2.7,19.7,9,0.04,,,0.00,VWS V13.01,2013-05-27 23:52:00,
2013-05-27 19:57:00,82.6,18.1,29.29,SSW,207,3.1,19.7,9,0.04,,,0.00,VWS V13.01,2013-05-27 23:57:00,
2013-05-27 20:02:00,82.6,18.1,29.29,WNW,290,5.8,19.7,9,0.04,,,0.00,VWS V13.01,2013-05-28 00:02:00,
2013-05-27 20:07:00,82.2,17.8,29.29,NNW,335,0.0,19.7,9,0.04,,,0.00,VWS V13.01,2013-05-28 00:07:00,
2013-05-27 20:12:00,81.9,17.6,29.29,South,179,2.7,19.7,9,0.04,,,0.00,VWS V13.01,2013-05-28 00:12:00,
2013-05-27 20:17:00,81.7,17.4,29.29,SW,236,0.0,19.7,9,0.04,,,0.00,VWS V13.01,2013-05-28 00:17:00,
2013-05-27 20:22:00,81.7,17.4,29.29,West,267,0.0,19.7,9,0.04,,,0.00,VWS V13.01,2013-05-28 00:22:00,
2013-05-27 20:27:00,81.3,17.1,29.29,NNW,329,0.0,19.7,9,0.04,,,0.00,VWS V13.01,2013-05-28 00:27:00,
2013-05-27 20:32:00,81.1,17.0,29.29,North,353,3.1,19.7,9,0.04,,,0.00,VWS V13.01,2013-05-28 00:32:00,
2013-05-27 20:37:00,81.0,16.9,29.29,NNW,348,2.2,19.7,9,0.04,,,0.00,VWS V13.01,2013-05-28 00:37:00,
2013-05-27 20:42:00,80.6,16.6,29.29,NW,318,0.0,19.7,9,0.04,,,0.00,VWS V13.01,2013-05-28 00:42:00,
2013-05-27 20:47:00,80.4,18.9,29.29,NNW,342,0.0,19.7,10,0.04,,,0.00,VWS V13.01,2013-05-28 00:47:00,
2013-05-27 20:52:00,80.2,18.8,29.29,SW,225,4.9,19.7,10,0.04,,,0.00,VWS V13.01,2013-05-28 00:52:00,
2013-05-27 20:57:00,80.1,18.6,29.29,South,190,2.2,19.7,10,0.04,,,0.00,VWS V13.01,2013-05-28 00:57:00,
2013-05-27 21:02:00,80.1,18.6,29.29,SW,235,4.5,19.7,10,0.04,,,0.00,VWS V13.01,2013-05-28 01:02:00,
2013-05-27 21:07:00,80.1,18.6,29.29,SW,224,3.6,19.7,10,0.04,,,0.00,VWS V13.01,2013-05-28 01:07:00,
2013-05-27 21:12:00,79.9,18.5,29.29,North,353,0.0,19.7,10,0.04,,,0.00,VWS V13.01,2013-05-28 01:12:00,
2013-05-27 21:17:00,79.7,18.4,29.29,SW,230,4.0,19.7,10,0.04,,,0.00,VWS V13.01,2013-05-28 01:17:00,
2013-05-27 21:22:00,79.9,18.5,29.29,WSW,240,4.0,19.7,10,0.04,,,0.00,VWS V13.01,2013-05-28 01:22:00,
2013-05-27 21:27:00,80.1,18.6,29.29,SW,224,3.1,19.7,10,0.04,,,0.00,VWS V13.01,2013-05-28 01:27:00,
2013-05-27 21:32:00,80.1,18.6,29.29,SW,231,2.2,19.7,10,0.04,,,0.00,VWS V13.01,2013-05-28 01:32:00,
2013-05-27 21:37:00,79.9,18.5,29.29,WSW,243,0.0,19.7,10,0.04,,,0.00,VWS V13.01,2013-05-28 01:37:00,
2013-05-27 21:42:00,79.7,18.4,29.29,SSW,193,0.0,19.7,10,0.04,,,0.00,VWS V13.01,2013-05-28 01:42:00,
2013-05-27 21:47:00,79.5,18.2,29.29,East,99,3.1,19.7,10,0.04,,,0.00,VWS V13.01,2013-05-28 01:47:00,
2013-05-27 21:52:00,79.2,18.0,29.29,SSW,212,2.7,19.7,10,0.04,,,0.00,VWS V13.01,2013-05-28 01:52:00,
2013-05-27 21:56:00,79.2,18.0,29.29,SE,143,2.2,19.7,10,0.04,,,0.00,VWS V13.01,2013-05-28 01:56:00,
2013-05-27 22:01:00,79.0,17.8,29.29,ESE,122,0.0,19.7,10,0.04,,,0.00,VWS V13.01,2013-05-28 02:01:00,
2013-05-27 22:07:00,78.3,17.3,29.29,ESE,112,2.7,19.7,10,0.04,,,0.00,VWS V13.01,2013-05-28 02:07:00,
2013-05-27 22:12:00,77.4,16.6,29.29,ESE,114,0.0,19.7,10,0.04,,,0.00,VWS V13.01,2013-05-28 02:12:00,
2013-05-27 22:17:00,76.8,16.2,29.29,SE,138,4.9,19.7,10,0.04,,,0.00,VWS V13.01,2013-05-28 02:17:00,
2013-05-27 22:22:00,75.9,15.5,29.29,ESE,118,3.1,19.7,10,0.04,,,0.00,VWS V13.01,2013-05-28 02:22:00,
2013-05-27 22:26:00,75.7,15.4,29.32,East,100,5.4,19.7,10,0.04,,,0.00,VWS V13.01,2013-05-28 02:26:00,
2013-05-27 22:32:00,75.7,15.4,29.32,East,87,3.6,19.7,10,0.04,,,0.00,VWS V13.01,2013-05-28 02:32:00,
2013-05-27 22:36:00,75.7,15.4,29.32,East,80,2.7,19.7,10,0.04,,,0.00,VWS V13.01,2013-05-28 02:36:00,
2013-05-27 22:41:00,75.9,15.5,29.32,ESE,113,5.4,19.7,10,0.04,,,0.00,VWS V13.01,2013-05-28 02:41:00,
2013-05-27 22:46:00,75.9,15.5,29.32,SSW,206,3.1,19.7,10,0.04,,,0.00,VWS V13.01,2013-05-28 02:46:00,
2013-05-27 22:51:00,76.1,15.6,29.32,SE,141,5.8,19.7,10,0.04,,,0.00,VWS V13.01,2013-05-28 02:51:00,
2013-05-27 22:56:00,76.6,16.0,29.32,SSE,167,4.0,19.7,10,0.04,,,0.00,VWS V13.01,2013-05-28 02:56:00,
2013-05-27 23:01:00,77.0,16.3,29.32,SSE,147,5.8,19.7,10,0.04,,,0.00,VWS V13.01,2013-05-28 03:01:00,
2013-05-27 23:06:00,77.2,16.5,29.32,South,187,3.6,19.7,10,0.04,,,0.00,VWS V13.01,2013-05-28 03:06:00,
2013-05-27 23:12:00,77.5,16.7,29.32,South,171,4.9,19.7,10,0.04,,,0.00,VWS V13.01,2013-05-28 03:12:00,
2013-05-27 23:16:00,77.7,16.9,29.32,SSE,152,5.4,19.7,10,0.04,,,0.00,VWS V13.01,2013-05-28 03:16:00,
2013-05-27 23:21:00,77.5,16.7,29.32,South,171,4.0,19.7,10,0.04,,,0.00,VWS V13.01,2013-05-28 03:21:00,
2013-05-27 23:26:00,77.2,16.5,29.32,SE,137,4.9,19.7,10,0.04,,,0.00,VWS V13.01,2013-05-28 03:26:00,
2013-05-27 23:31:00,76.5,15.9,29.32,SE,128,5.4,19.7,10,0.04,,,0.00,VWS V13.01,2013-05-28 03:31:00,
2013-05-27 23:36:00,75.7,15.4,29.32,SE,139,4.0,19.7,10,0.04,,,0.00,VWS V13.01,2013-05-28 03:36:00,
2013-05-27 23:42:00,75.4,15.1,29.32,SE,130,4.0,19.7,10,0.04,,,0.00,VWS V13.01,2013-05-28 03:42:00,
2013-05-27 23:46:00,75.2,14.9,29.32,SSE,152,6.3,19.7,10,0.04,,,0.00,VWS V13.01,2013-05-28 03:46:00,
2013-05-27 23:51:00,75.2,14.9,29.32,SSE,148,7.6,19.7,10,0.04,,,0.00,VWS V13.01,2013-05-28 03:51:00,
2013-05-27 23:57:00,75.2,14.9,29.32,ESE,118,3.1,19.7,10,0.04,,,0.00,VWS V13.01,2013-05-28 03:57:00,